sensor_id;sensor_type;location;lat;lon;timestamp;P1;durP1;ratioP1;P2;durP2;ratioP2
18265;SDS011;9259;48.194;16.322;2022-09-09T00:00:19;1.15;;;0.60;;
18265;SDS011;9259;48.194;16.322;2022-09-09T00:02:50;0.98;;;0.52;;
18265;SDS011;9259;48.194;16.322;2022-09-09T00:05:26;1.17;;;0.68;;
18265;SDS011;9259;48.194;16.322;2022-09-09T00:08:00;2.15;;;0.50;;
18265;SDS011;9259;48.194;16.322;2022-09-09T00:10:32;0.85;;;0.60;;
18265;SDS011;9259;48.194;16.322;2022-09-09T00:13:05;0.90;;;0.70;;
18265;SDS011;9259;48.194;16.322;2022-09-09T00:15:38;0.88;;;0.55;;
18265;SDS011;9259;48.194;16.322;2022-09-09T00:18:13;1.00;;;0.60;;
18265;SDS011;9259;48.194;16.322;2022-09-09T00:20:47;2.15;;;0.70;;
18265;SDS011;9259;48.194;16.322;2022-09-09T00:23:24;2.97;;;0.80;;
18265;SDS011;9259;48.194;16.322;2022-09-09T00:25:54;1.58;;;0.73;;
18265;SDS011;9259;48.194;16.322;2022-09-09T00:28:28;2.00;;;0.80;;
18265;SDS011;9259;48.194;16.322;2022-09-09T00:30:59;1.45;;;0.85;;
18265;SDS011;9259;48.194;16.322;2022-09-09T00:33:31;2.55;;;0.55;;
18265;SDS011;9259;48.194;16.322;2022-09-09T00:35:59;1.52;;;0.90;;
18265;SDS011;9259;48.194;16.322;2022-09-09T00:38:32;2.00;;;0.60;;
18265;SDS011;9259;48.194;16.322;2022-09-09T00:41:03;1.85;;;0.90;;
18265;SDS011;9259;48.194;16.322;2022-09-09T00:43:35;0.95;;;0.60;;
18265;SDS011;9259;48.194;16.322;2022-09-09T00:49:12;2.15;;;0.60;;
18265;SDS011;9259;48.194;16.322;2022-09-09T00:51:48;1.48;;;0.65;;
18265;SDS011;9259;48.194;16.322;2022-09-09T00:54:30;1.40;;;0.43;;
18265;SDS011;9259;48.194;16.322;2022-09-09T00:57:09;1.10;;;0.40;;
18265;SDS011;9259;48.194;16.322;2022-09-09T00:59:44;1.50;;;0.60;;
18265;SDS011;9259;48.194;16.322;2022-09-09T01:02:16;1.38;;;0.47;;
18265;SDS011;9259;48.194;16.322;2022-09-09T01:04:52;2.25;;;0.57;;
18265;SDS011;9259;48.194;16.322;2022-09-09T01:07:20;1.85;;;0.50;;
18265;SDS011;9259;48.194;16.322;2022-09-09T01:09:52;0.63;;;0.52;;
18265;SDS011;9259;48.194;16.322;2022-09-09T01:12:27;1.00;;;0.60;;
18265;SDS011;9259;48.194;16.322;2022-09-09T01:15:03;1.67;;;0.60;;
18265;SDS011;9259;48.194;16.322;2022-09-09T01:17:39;0.93;;;0.47;;
18265;SDS011;9259;48.194;16.322;2022-09-09T01:20:17;0.82;;;0.40;;
18265;SDS011;9259;48.194;16.322;2022-09-09T01:22:52;1.00;;;0.50;;
18265;SDS011;9259;48.194;16.322;2022-09-09T01:25:30;0.82;;;0.40;;
18265;SDS011;9259;48.194;16.322;2022-09-09T01:28:29;0.75;;;0.50;;
18265;SDS011;9259;48.194;16.322;2022-09-09T01:30:58;1.30;;;0.50;;
18265;SDS011;9259;48.194;16.322;2022-09-09T01:33:26;1.23;;;0.40;;
18265;SDS011;9259;48.194;16.322;2022-09-09T01:35:55;5.60;;;0.70;;
18265;SDS011;9259;48.194;16.322;2022-09-09T01:38:27;2.75;;;0.63;;
18265;SDS011;9259;48.194;16.322;2022-09-09T01:40:57;1.63;;;0.50;;
18265;SDS011;9259;48.194;16.322;2022-09-09T01:43:25;0.88;;;0.50;;
18265;SDS011;9259;48.194;16.322;2022-09-09T01:45:54;3.42;;;0.70;;
18265;SDS011;9259;48.194;16.322;2022-09-09T01:48:23;0.55;;;0.50;;
18265;SDS011;9259;48.194;16.322;2022-09-09T01:50:52;1.60;;;0.57;;
18265;SDS011;9259;48.194;16.322;2022-09-09T01:53:20;0.55;;;0.50;;
18265;SDS011;9259;48.194;16.322;2022-09-09T01:55:55;0.75;;;0.50;;
18265;SDS011;9259;48.194;16.322;2022-09-09T01:58:34;1.50;;;0.50;;
18265;SDS011;9259;48.194;16.322;2022-09-09T02:01:11;1.25;;;0.57;;
18265;SDS011;9259;48.194;16.322;2022-09-09T02:03:43;1.15;;;0.40;;
18265;SDS011;9259;48.194;16.322;2022-09-09T02:06:14;1.17;;;0.60;;
18265;SDS011;9259;48.194;16.322;2022-09-09T02:08:52;2.40;;;0.40;;
18265;SDS011;9259;48.194;16.322;2022-09-09T02:11:24;2.65;;;0.50;;
18265;SDS011;9259;48.194;16.322;2022-09-09T02:13:54;1.00;;;0.52;;
18265;SDS011;9259;48.194;16.322;2022-09-09T02:16:26;0.90;;;0.65;;
18265;SDS011;9259;48.194;16.322;2022-09-09T02:18:56;0.95;;;0.50;;
18265;SDS011;9259;48.194;16.322;2022-09-09T02:21:28;2.08;;;0.90;;
18265;SDS011;9259;48.194;16.322;2022-09-09T02:23:57;1.65;;;0.55;;
18265;SDS011;9259;48.194;16.322;2022-09-09T02:26:27;0.90;;;0.60;;
18265;SDS011;9259;48.194;16.322;2022-09-09T02:28:57;2.10;;;0.82;;
18265;SDS011;9259;48.194;16.322;2022-09-09T02:31:28;0.90;;;0.68;;
18265;SDS011;9259;48.194;16.322;2022-09-09T02:33:57;3.85;;;0.73;;
18265;SDS011;9259;48.194;16.322;2022-09-09T02:36:29;1.63;;;0.70;;
18265;SDS011;9259;48.194;16.322;2022-09-09T02:38:59;1.13;;;0.68;;
18265;SDS011;9259;48.194;16.322;2022-09-09T02:41:30;0.85;;;0.60;;
18265;SDS011;9259;48.194;16.322;2022-09-09T02:44:00;1.65;;;0.70;;
18265;SDS011;9259;48.194;16.322;2022-09-09T02:46:35;0.95;;;0.55;;
18265;SDS011;9259;48.194;16.322;2022-09-09T02:49:10;1.58;;;0.70;;
18265;SDS011;9259;48.194;16.322;2022-09-09T02:51:44;1.80;;;0.60;;
18265;SDS011;9259;48.194;16.322;2022-09-09T02:54:22;1.58;;;0.50;;
18265;SDS011;9259;48.194;16.322;2022-09-09T02:57:01;3.88;;;0.68;;
18265;SDS011;9259;48.194;16.322;2022-09-09T02:59:33;1.67;;;0.70;;
18265;SDS011;9259;48.194;16.322;2022-09-09T03:02:01;1.02;;;0.65;;
18265;SDS011;9259;48.194;16.322;2022-09-09T03:04:29;4.28;;;0.70;;
18265;SDS011;9259;48.194;16.322;2022-09-09T03:06:58;1.52;;;0.60;;
18265;SDS011;9259;48.194;16.322;2022-09-09T03:09:26;0.90;;;0.68;;
18265;SDS011;9259;48.194;16.322;2022-09-09T03:11:54;1.25;;;0.50;;
18265;SDS011;9259;48.194;16.322;2022-09-09T03:14:24;1.63;;;0.60;;
18265;SDS011;9259;48.194;16.322;2022-09-09T03:16:52;2.30;;;0.70;;
18265;SDS011;9259;48.194;16.322;2022-09-09T03:19:22;2.78;;;0.80;;
18265;SDS011;9259;48.194;16.322;2022-09-09T03:21:50;1.08;;;0.68;;
18265;SDS011;9259;48.194;16.322;2022-09-09T03:24:18;2.78;;;0.50;;
18265;SDS011;9259;48.194;16.322;2022-09-09T03:26:47;2.10;;;0.90;;
18265;SDS011;9259;48.194;16.322;2022-09-09T03:29:16;1.80;;;0.85;;
18265;SDS011;9259;48.194;16.322;2022-09-09T03:31:46;1.13;;;0.47;;
18265;SDS011;9259;48.194;16.322;2022-09-09T03:34:14;1.52;;;0.80;;
18265;SDS011;9259;48.194;16.322;2022-09-09T03:36:42;1.75;;;0.70;;
18265;SDS011;9259;48.194;16.322;2022-09-09T03:39:10;1.05;;;0.52;;
18265;SDS011;9259;48.194;16.322;2022-09-09T03:41:38;2.15;;;0.60;;
18265;SDS011;9259;48.194;16.322;2022-09-09T03:44:06;3.35;;;1.05;;
18265;SDS011;9259;48.194;16.322;2022-09-09T03:46:34;1.65;;;0.70;;
18265;SDS011;9259;48.194;16.322;2022-09-09T03:49:05;0.90;;;0.68;;
18265;SDS011;9259;48.194;16.322;2022-09-09T03:51:33;2.10;;;0.77;;
18265;SDS011;9259;48.194;16.322;2022-09-09T03:54:02;1.50;;;0.90;;
18265;SDS011;9259;48.194;16.322;2022-09-09T03:56:30;1.80;;;0.52;;
18265;SDS011;9259;48.194;16.322;2022-09-09T03:58:58;1.70;;;0.75;;
18265;SDS011;9259;48.194;16.322;2022-09-09T04:01:26;1.83;;;0.80;;
18265;SDS011;9259;48.194;16.322;2022-09-09T04:03:55;1.65;;;1.08;;
18265;SDS011;9259;48.194;16.322;2022-09-09T04:06:26;3.00;;;0.80;;
18265;SDS011;9259;48.194;16.322;2022-09-09T04:08:55;4.18;;;0.88;;
18265;SDS011;9259;48.194;16.322;2022-09-09T04:11:23;2.03;;;0.80;;
18265;SDS011;9259;48.194;16.322;2022-09-09T04:13:51;1.48;;;0.88;;
18265;SDS011;9259;48.194;16.322;2022-09-09T04:16:19;2.67;;;0.93;;
18265;SDS011;9259;48.194;16.322;2022-09-09T04:18:47;2.47;;;1.58;;
18265;SDS011;9259;48.194;16.322;2022-09-09T04:21:16;7.47;;;1.50;;
18265;SDS011;9259;48.194;16.322;2022-09-09T04:23:45;2.55;;;1.30;;
18265;SDS011;9259;48.194;16.322;2022-09-09T04:26:13;3.25;;;1.05;;
18265;SDS011;9259;48.194;16.322;2022-09-09T04:28:41;2.30;;;1.00;;
18265;SDS011;9259;48.194;16.322;2022-09-09T04:31:10;4.93;;;1.48;;
18265;SDS011;9259;48.194;16.322;2022-09-09T04:33:40;3.38;;;1.20;;
18265;SDS011;9259;48.194;16.322;2022-09-09T04:36:08;5.47;;;1.55;;
18265;SDS011;9259;48.194;16.322;2022-09-09T04:38:36;4.95;;;1.48;;
18265;SDS011;9259;48.194;16.322;2022-09-09T04:41:06;5.82;;;1.67;;
18265;SDS011;9259;48.194;16.322;2022-09-09T04:43:36;7.25;;;1.70;;
18265;SDS011;9259;48.194;16.322;2022-09-09T04:46:05;4.28;;;1.40;;
18265;SDS011;9259;48.194;16.322;2022-09-09T04:48:33;5.22;;;1.42;;
18265;SDS011;9259;48.194;16.322;2022-09-09T04:51:02;6.75;;;1.50;;
18265;SDS011;9259;48.194;16.322;2022-09-09T04:53:32;4.50;;;1.23;;
18265;SDS011;9259;48.194;16.322;2022-09-09T04:56:01;6.47;;;1.70;;
18265;SDS011;9259;48.194;16.322;2022-09-09T04:58:31;5.55;;;1.58;;
18265;SDS011;9259;48.194;16.322;2022-09-09T05:01:03;4.35;;;1.40;;
18265;SDS011;9259;48.194;16.322;2022-09-09T05:03:32;6.88;;;1.63;;
18265;SDS011;9259;48.194;16.322;2022-09-09T05:06:07;3.42;;;1.40;;
18265;SDS011;9259;48.194;16.322;2022-09-09T05:08:36;7.57;;;2.17;;
18265;SDS011;9259;48.194;16.322;2022-09-09T05:11:12;5.30;;;1.60;;
18265;SDS011;9259;48.194;16.322;2022-09-09T05:13:43;7.03;;;1.50;;
18265;SDS011;9259;48.194;16.322;2022-09-09T05:16:12;8.05;;;1.92;;
18265;SDS011;9259;48.194;16.322;2022-09-09T05:18:40;9.18;;;1.73;;
18265;SDS011;9259;48.194;16.322;2022-09-09T05:21:09;5.05;;;1.70;;
18265;SDS011;9259;48.194;16.322;2022-09-09T05:23:37;7.63;;;1.52;;
18265;SDS011;9259;48.194;16.322;2022-09-09T05:26:06;7.63;;;2.30;;
18265;SDS011;9259;48.194;16.322;2022-09-09T05:28:36;8.07;;;1.90;;
18265;SDS011;9259;48.194;16.322;2022-09-09T05:31:06;7.80;;;2.70;;
18265;SDS011;9259;48.194;16.322;2022-09-09T05:33:35;10.98;;;2.50;;
18265;SDS011;9259;48.194;16.322;2022-09-09T05:36:06;7.50;;;2.10;;
18265;SDS011;9259;48.194;16.322;2022-09-09T05:38:36;11.23;;;2.15;;
18265;SDS011;9259;48.194;16.322;2022-09-09T05:41:05;7.28;;;2.20;;
18265;SDS011;9259;48.194;16.322;2022-09-09T05:43:33;7.57;;;2.00;;
18265;SDS011;9259;48.194;16.322;2022-09-09T05:46:02;8.25;;;2.30;;
18265;SDS011;9259;48.194;16.322;2022-09-09T05:48:33;5.18;;;2.00;;
18265;SDS011;9259;48.194;16.322;2022-09-09T05:51:01;6.50;;;1.83;;
18265;SDS011;9259;48.194;16.322;2022-09-09T05:53:30;13.95;;;2.13;;
18265;SDS011;9259;48.194;16.322;2022-09-09T05:56:00;9.63;;;1.77;;
18265;SDS011;9259;48.194;16.322;2022-09-09T05:58:30;4.45;;;1.50;;
18265;SDS011;9259;48.194;16.322;2022-09-09T06:01:02;3.63;;;1.88;;
18265;SDS011;9259;48.194;16.322;2022-09-09T06:03:31;8.68;;;2.10;;
18265;SDS011;9259;48.194;16.322;2022-09-09T06:06:02;8.25;;;2.42;;
18265;SDS011;9259;48.194;16.322;2022-09-09T06:08:32;5.47;;;1.95;;
18265;SDS011;9259;48.194;16.322;2022-09-09T06:11:00;9.57;;;2.30;;
18265;SDS011;9259;48.194;16.322;2022-09-09T06:13:29;10.63;;;2.45;;
18265;SDS011;9259;48.194;16.322;2022-09-09T06:15:57;9.15;;;2.75;;
18265;SDS011;9259;48.194;16.322;2022-09-09T06:18:26;14.90;;;2.97;;
18265;SDS011;9259;48.194;16.322;2022-09-09T06:20:57;12.77;;;2.72;;
18265;SDS011;9259;48.194;16.322;2022-09-09T06:23:27;9.98;;;2.60;;
18265;SDS011;9259;48.194;16.322;2022-09-09T06:26:02;14.95;;;2.83;;
18265;SDS011;9259;48.194;16.322;2022-09-09T06:28:31;12.82;;;3.40;;
18265;SDS011;9259;48.194;16.322;2022-09-09T06:30:59;5.93;;;3.00;;
18265;SDS011;9259;48.194;16.322;2022-09-09T06:33:30;10.75;;;3.75;;
18265;SDS011;9259;48.194;16.322;2022-09-09T06:36:02;9.40;;;3.40;;
18265;SDS011;9259;48.194;16.322;2022-09-09T06:38:30;6.38;;;3.20;;
18265;SDS011;9259;48.194;16.322;2022-09-09T06:40:59;5.47;;;2.97;;
18265;SDS011;9259;48.194;16.322;2022-09-09T06:43:27;8.18;;;3.30;;
18265;SDS011;9259;48.194;16.322;2022-09-09T06:45:56;7.53;;;3.55;;
18265;SDS011;9259;48.194;16.322;2022-09-09T06:48:25;5.53;;;2.83;;
18265;SDS011;9259;48.194;16.322;2022-09-09T06:51:02;8.00;;;2.88;;
18265;SDS011;9259;48.194;16.322;2022-09-09T06:53:31;7.53;;;2.70;;
18265;SDS011;9259;48.194;16.322;2022-09-09T06:56:00;6.32;;;2.65;;
18265;SDS011;9259;48.194;16.322;2022-09-09T06:58:28;8.90;;;3.10;;
18265;SDS011;9259;48.194;16.322;2022-09-09T07:01:03;10.63;;;2.70;;
18265;SDS011;9259;48.194;16.322;2022-09-09T07:03:31;6.80;;;2.80;;
18265;SDS011;9259;48.194;16.322;2022-09-09T07:06:01;9.15;;;2.63;;
18265;SDS011;9259;48.194;16.322;2022-09-09T07:08:30;6.60;;;2.60;;
18265;SDS011;9259;48.194;16.322;2022-09-09T07:11:01;10.23;;;2.47;;
18265;SDS011;9259;48.194;16.322;2022-09-09T07:13:31;7.38;;;2.67;;
18265;SDS011;9259;48.194;16.322;2022-09-09T07:16:03;8.32;;;2.50;;
18265;SDS011;9259;48.194;16.322;2022-09-09T07:18:32;7.65;;;3.00;;
18265;SDS011;9259;48.194;16.322;2022-09-09T07:21:02;6.68;;;2.50;;
18265;SDS011;9259;48.194;16.322;2022-09-09T07:23:32;8.27;;;2.83;;
18265;SDS011;9259;48.194;16.322;2022-09-09T07:26:01;5.80;;;2.67;;
18265;SDS011;9259;48.194;16.322;2022-09-09T07:28:30;10.23;;;2.75;;
18265;SDS011;9259;48.194;16.322;2022-09-09T07:30:58;6.43;;;2.75;;
18265;SDS011;9259;48.194;16.322;2022-09-09T07:33:28;9.98;;;2.60;;
18265;SDS011;9259;48.194;16.322;2022-09-09T07:36:03;11.45;;;3.45;;
18265;SDS011;9259;48.194;16.322;2022-09-09T07:38:33;6.55;;;2.20;;
18265;SDS011;9259;48.194;16.322;2022-09-09T07:41:05;5.15;;;2.13;;
18265;SDS011;9259;48.194;16.322;2022-09-09T07:43:35;6.90;;;2.38;;
18265;SDS011;9259;48.194;16.322;2022-09-09T07:46:03;7.72;;;2.40;;
18265;SDS011;9259;48.194;16.322;2022-09-09T07:48:31;5.57;;;2.70;;
18265;SDS011;9259;48.194;16.322;2022-09-09T07:51:06;6.70;;;2.65;;
18265;SDS011;9259;48.194;16.322;2022-09-09T07:53:36;9.75;;;3.40;;
18265;SDS011;9259;48.194;16.322;2022-09-09T07:56:05;12.45;;;4.18;;
18265;SDS011;9259;48.194;16.322;2022-09-09T07:58:35;8.88;;;2.90;;
18265;SDS011;9259;48.194;16.322;2022-09-09T08:01:07;6.00;;;3.20;;
18265;SDS011;9259;48.194;16.322;2022-09-09T08:03:36;8.95;;;2.90;;
18265;SDS011;9259;48.194;16.322;2022-09-09T08:06:07;9.18;;;2.92;;
18265;SDS011;9259;48.194;16.322;2022-09-09T08:08:36;8.65;;;3.45;;
18265;SDS011;9259;48.194;16.322;2022-09-09T08:11:05;8.25;;;3.60;;
18265;SDS011;9259;48.194;16.322;2022-09-09T08:13:34;6.25;;;3.17;;
18265;SDS011;9259;48.194;16.322;2022-09-09T08:16:04;8.07;;;3.50;;
18265;SDS011;9259;48.194;16.322;2022-09-09T08:18:33;11.10;;;3.58;;
18265;SDS011;9259;48.194;16.322;2022-09-09T08:21:07;11.30;;;3.60;;
18265;SDS011;9259;48.194;16.322;2022-09-09T08:23:38;10.50;;;3.00;;
18265;SDS011;9259;48.194;16.322;2022-09-09T08:26:07;7.60;;;3.05;;
18265;SDS011;9259;48.194;16.322;2022-09-09T08:28:37;9.77;;;3.00;;
18265;SDS011;9259;48.194;16.322;2022-09-09T08:31:07;9.05;;;3.40;;
18265;SDS011;9259;48.194;16.322;2022-09-09T08:33:37;11.20;;;3.17;;
18265;SDS011;9259;48.194;16.322;2022-09-09T08:36:09;9.27;;;3.10;;
18265;SDS011;9259;48.194;16.322;2022-09-09T08:38:38;9.82;;;3.42;;
18265;SDS011;9259;48.194;16.322;2022-09-09T08:41:20;12.52;;;3.00;;
18265;SDS011;9259;48.194;16.322;2022-09-09T08:44:01;8.02;;;2.70;;
18265;SDS011;9259;48.194;16.322;2022-09-09T08:46:33;6.18;;;2.50;;
18265;SDS011;9259;48.194;16.322;2022-09-09T08:49:13;10.23;;;2.50;;
18265;SDS011;9259;48.194;16.322;2022-09-09T08:51:48;8.38;;;2.72;;
18265;SDS011;9259;48.194;16.322;2022-09-09T08:54:16;11.70;;;2.80;;
18265;SDS011;9259;48.194;16.322;2022-09-09T08:56:44;5.35;;;1.70;;
18265;SDS011;9259;48.194;16.322;2022-09-09T08:59:13;5.45;;;1.73;;
18265;SDS011;9259;48.194;16.322;2022-09-09T09:04:31;3.80;;;1.80;;
18265;SDS011;9259;48.194;16.322;2022-09-09T09:07:11;5.05;;;2.17;;
18265;SDS011;9259;48.194;16.322;2022-09-09T09:09:49;10.48;;;2.55;;
18265;SDS011;9259;48.194;16.322;2022-09-09T09:12:24;5.13;;;2.28;;
18265;SDS011;9259;48.194;16.322;2022-09-09T09:14:54;4.78;;;2.17;;
18265;SDS011;9259;48.194;16.322;2022-09-09T09:17:28;4.45;;;1.80;;
18265;SDS011;9259;48.194;16.322;2022-09-09T09:19:58;4.88;;;2.20;;
18265;SDS011;9259;48.194;16.322;2022-09-09T09:22:32;4.82;;;1.85;;
18265;SDS011;9259;48.194;16.322;2022-09-09T09:25:05;5.53;;;1.80;;
18265;SDS011;9259;48.194;16.322;2022-09-09T09:27:40;7.10;;;1.90;;
18265;SDS011;9259;48.194;16.322;2022-09-09T09:30:13;8.77;;;2.33;;
18265;SDS011;9259;48.194;16.322;2022-09-09T09:32:44;4.60;;;2.38;;
18265;SDS011;9259;48.194;16.322;2022-09-09T09:35:16;5.53;;;2.22;;
18265;SDS011;9259;48.194;16.322;2022-09-09T09:37:46;7.55;;;1.85;;
18265;SDS011;9259;48.194;16.322;2022-09-09T09:40:15;6.75;;;1.85;;
18265;SDS011;9259;48.194;16.322;2022-09-09T09:42:48;7.32;;;2.28;;
18265;SDS011;9259;48.194;16.322;2022-09-09T09:45:22;2.35;;;1.50;;
18265;SDS011;9259;48.194;16.322;2022-09-09T09:47:57;4.97;;;1.85;;
18265;SDS011;9259;48.194;16.322;2022-09-09T09:50:26;3.22;;;1.90;;
18265;SDS011;9259;48.194;16.322;2022-09-09T09:52:56;6.35;;;2.03;;
18265;SDS011;9259;48.194;16.322;2022-09-09T09:55:26;5.50;;;2.00;;
18265;SDS011;9259;48.194;16.322;2022-09-09T09:58:03;5.88;;;2.08;;
18265;SDS011;9259;48.194;16.322;2022-09-09T10:00:32;4.85;;;1.50;;
18265;SDS011;9259;48.194;16.322;2022-09-09T10:03:01;3.17;;;1.60;;
18265;SDS011;9259;48.194;16.322;2022-09-09T10:05:44;1.73;;;1.08;;
18265;SDS011;9259;48.194;16.322;2022-09-09T10:08:18;4.45;;;1.40;;
18265;SDS011;9259;48.194;16.322;2022-09-09T10:10:49;4.97;;;1.10;;
18265;SDS011;9259;48.194;16.322;2022-09-09T10:13:26;2.28;;;1.23;;
18265;SDS011;9259;48.194;16.322;2022-09-09T10:16:01;7.10;;;1.30;;
18265;SDS011;9259;48.194;16.322;2022-09-09T10:18:44;3.42;;;1.17;;
18265;SDS011;9259;48.194;16.322;2022-09-09T10:21:19;4.03;;;1.55;;
18265;SDS011;9259;48.194;16.322;2022-09-09T10:23:58;5.80;;;1.48;;
18265;SDS011;9259;48.194;16.322;2022-09-09T10:26:35;3.03;;;1.10;;
18265;SDS011;9259;48.194;16.322;2022-09-09T10:31:59;2.88;;;1.10;;
18265;SDS011;9259;48.194;16.322;2022-09-09T10:34:41;2.22;;;0.98;;
18265;SDS011;9259;48.194;16.322;2022-09-09T10:37:21;2.20;;;0.90;;
18265;SDS011;9259;48.194;16.322;2022-09-09T10:39:59;3.60;;;1.23;;
18265;SDS011;9259;48.194;16.322;2022-09-09T10:42:32;3.78;;;1.60;;
18265;SDS011;9259;48.194;16.322;2022-09-09T10:45:03;5.85;;;1.67;;
18265;SDS011;9259;48.194;16.322;2022-09-09T10:47:50;4.30;;;1.42;;
18265;SDS011;9259;48.194;16.322;2022-09-09T10:50:38;3.92;;;1.40;;
18265;SDS011;9259;48.194;16.322;2022-09-09T10:53:14;2.92;;;1.65;;
18265;SDS011;9259;48.194;16.322;2022-09-09T10:55:50;4.03;;;1.92;;
18265;SDS011;9259;48.194;16.322;2022-09-09T10:58:21;4.18;;;1.40;;
18265;SDS011;9259;48.194;16.322;2022-09-09T11:00:53;6.68;;;1.52;;
18265;SDS011;9259;48.194;16.322;2022-09-09T11:03:24;4.30;;;1.20;;
18265;SDS011;9259;48.194;16.322;2022-09-09T11:05:56;4.18;;;1.00;;
18265;SDS011;9259;48.194;16.322;2022-09-09T11:08:26;5.85;;;1.50;;
18265;SDS011;9259;48.194;16.322;2022-09-09T11:10:58;5.75;;;1.08;;
18265;SDS011;9259;48.194;16.322;2022-09-09T11:13:32;5.22;;;1.40;;
18265;SDS011;9259;48.194;16.322;2022-09-09T11:16:04;5.45;;;1.25;;
18265;SDS011;9259;48.194;16.322;2022-09-09T11:18:43;2.08;;;1.00;;
18265;SDS011;9259;48.194;16.322;2022-09-09T11:21:15;2.15;;;1.02;;
18265;SDS011;9259;48.194;16.322;2022-09-09T11:23:48;2.17;;;1.00;;
18265;SDS011;9259;48.194;16.322;2022-09-09T11:26:21;2.05;;;0.90;;
18265;SDS011;9259;48.194;16.322;2022-09-09T11:29:00;1.48;;;0.93;;
18265;SDS011;9259;48.194;16.322;2022-09-09T11:31:40;3.63;;;0.90;;
18265;SDS011;9259;48.194;16.322;2022-09-09T11:34:31;2.50;;;0.95;;
18265;SDS011;9259;48.194;16.322;2022-09-09T11:40:20;3.80;;;0.82;;
18265;SDS011;9259;48.194;16.322;2022-09-09T11:42:51;5.88;;;1.23;;
18265;SDS011;9259;48.194;16.322;2022-09-09T11:45:30;2.13;;;1.13;;
18265;SDS011;9259;48.194;16.322;2022-09-09T11:47:59;2.25;;;1.10;;
18265;SDS011;9259;48.194;16.322;2022-09-09T11:50:29;5.05;;;1.10;;
18265;SDS011;9259;48.194;16.322;2022-09-09T11:53:20;2.72;;;0.80;;
18265;SDS011;9259;48.194;16.322;2022-09-09T11:56:05;3.28;;;1.35;;
18265;SDS011;9259;48.194;16.322;2022-09-09T11:58:43;3.95;;;0.93;;
18265;SDS011;9259;48.194;16.322;2022-09-09T12:01:26;2.42;;;1.10;;
18265;SDS011;9259;48.194;16.322;2022-09-09T12:04:16;5.97;;;1.35;;
18265;SDS011;9259;48.194;16.322;2022-09-09T12:06:54;4.28;;;1.02;;
18265;SDS011;9259;48.194;16.322;2022-09-09T12:09:27;3.78;;;1.00;;
18265;SDS011;9259;48.194;16.322;2022-09-09T12:12:22;1.48;;;1.00;;
18265;SDS011;9259;48.194;16.322;2022-09-09T12:15:01;4.45;;;1.17;;
18265;SDS011;9259;48.194;16.322;2022-09-09T12:17:46;4.22;;;0.95;;
18265;SDS011;9259;48.194;16.322;2022-09-09T12:20:16;4.43;;;1.10;;
18265;SDS011;9259;48.194;16.322;2022-09-09T12:22:59;3.22;;;1.00;;
18265;SDS011;9259;48.194;16.322;2022-09-09T12:25:48;3.03;;;0.82;;
18265;SDS011;9259;48.194;16.322;2022-09-09T12:28:33;1.30;;;0.90;;
18265;SDS011;9259;48.194;16.322;2022-09-09T12:31:12;3.90;;;0.98;;
18265;SDS011;9259;48.194;16.322;2022-09-09T12:33:44;5.38;;;1.52;;
18265;SDS011;9259;48.194;16.322;2022-09-09T12:36:14;5.65;;;1.15;;
18265;SDS011;9259;48.194;16.322;2022-09-09T12:38:45;4.32;;;1.20;;
18265;SDS011;9259;48.194;16.322;2022-09-09T12:41:18;11.18;;;1.20;;
18265;SDS011;9259;48.194;16.322;2022-09-09T12:43:47;2.03;;;1.10;;
18265;SDS011;9259;48.194;16.322;2022-09-09T12:46:20;5.80;;;1.58;;
18265;SDS011;9259;48.194;16.322;2022-09-09T12:48:51;2.92;;;0.93;;
18265;SDS011;9259;48.194;16.322;2022-09-09T12:51:22;4.88;;;0.93;;
18265;SDS011;9259;48.194;16.322;2022-09-09T12:53:53;1.70;;;0.80;;
18265;SDS011;9259;48.194;16.322;2022-09-09T12:56:22;2.88;;;0.98;;
18265;SDS011;9259;48.194;16.322;2022-09-09T12:58:52;1.92;;;0.90;;
18265;SDS011;9259;48.194;16.322;2022-09-09T13:01:24;3.13;;;1.00;;
18265;SDS011;9259;48.194;16.322;2022-09-09T13:03:54;6.10;;;1.10;;
18265;SDS011;9259;48.194;16.322;2022-09-09T13:06:23;1.77;;;1.15;;
18265;SDS011;9259;48.194;16.322;2022-09-09T13:08:51;3.55;;;0.80;;
18265;SDS011;9259;48.194;16.322;2022-09-09T13:11:21;3.05;;;0.93;;
18265;SDS011;9259;48.194;16.322;2022-09-09T13:13:52;3.80;;;1.00;;
18265;SDS011;9259;48.194;16.322;2022-09-09T13:16:25;3.58;;;1.30;;
18265;SDS011;9259;48.194;16.322;2022-09-09T13:18:57;4.10;;;1.48;;
18265;SDS011;9259;48.194;16.322;2022-09-09T13:21:33;2.28;;;1.40;;
18265;SDS011;9259;48.194;16.322;2022-09-09T13:24:03;4.63;;;1.40;;
18265;SDS011;9259;48.194;16.322;2022-09-09T13:26:33;2.35;;;1.10;;
18265;SDS011;9259;48.194;16.322;2022-09-09T13:29:09;4.10;;;1.20;;
18265;SDS011;9259;48.194;16.322;2022-09-09T13:31:45;2.92;;;1.13;;
18265;SDS011;9259;48.194;16.322;2022-09-09T13:34:13;4.13;;;1.63;;
18265;SDS011;9259;48.194;16.322;2022-09-09T13:36:59;2.92;;;1.05;;
18265;SDS011;9259;48.194;16.322;2022-09-09T13:39:29;4.03;;;1.20;;
18265;SDS011;9259;48.194;16.322;2022-09-09T13:41:57;5.70;;;1.13;;
18265;SDS011;9259;48.194;16.322;2022-09-09T13:44:25;2.80;;;0.98;;
18265;SDS011;9259;48.194;16.322;2022-09-09T13:47:03;2.55;;;1.20;;
18265;SDS011;9259;48.194;16.322;2022-09-09T13:49:32;3.05;;;0.90;;
18265;SDS011;9259;48.194;16.322;2022-09-09T13:52:04;2.15;;;1.00;;
18265;SDS011;9259;48.194;16.322;2022-09-09T13:54:35;2.05;;;1.20;;
18265;SDS011;9259;48.194;16.322;2022-09-09T13:57:03;5.22;;;1.25;;
18265;SDS011;9259;48.194;16.322;2022-09-09T13:59:31;5.15;;;1.23;;
18265;SDS011;9259;48.194;16.322;2022-09-09T14:02:00;4.20;;;1.60;;
18265;SDS011;9259;48.194;16.322;2022-09-09T14:04:29;2.38;;;1.30;;
18265;SDS011;9259;48.194;16.322;2022-09-09T14:06:57;3.10;;;1.40;;
18265;SDS011;9259;48.194;16.322;2022-09-09T14:09:25;4.03;;;1.33;;
18265;SDS011;9259;48.194;16.322;2022-09-09T14:11:53;3.25;;;1.67;;
18265;SDS011;9259;48.194;16.322;2022-09-09T14:14:21;4.82;;;1.50;;
18265;SDS011;9259;48.194;16.322;2022-09-09T14:16:50;4.78;;;1.30;;
18265;SDS011;9259;48.194;16.322;2022-09-09T14:19:20;3.05;;;1.25;;
18265;SDS011;9259;48.194;16.322;2022-09-09T14:21:48;5.72;;;1.40;;
18265;SDS011;9259;48.194;16.322;2022-09-09T14:24:17;1.95;;;1.00;;
18265;SDS011;9259;48.194;16.322;2022-09-09T14:26:45;7.20;;;1.52;;
18265;SDS011;9259;48.194;16.322;2022-09-09T14:29:13;2.90;;;1.45;;
18265;SDS011;9259;48.194;16.322;2022-09-09T14:31:41;1.67;;;1.38;;
18265;SDS011;9259;48.194;16.322;2022-09-09T14:34:09;3.85;;;1.75;;
18265;SDS011;9259;48.194;16.322;2022-09-09T14:36:39;3.20;;;1.50;;
18265;SDS011;9259;48.194;16.322;2022-09-09T14:39:07;2.33;;;1.50;;
18265;SDS011;9259;48.194;16.322;2022-09-09T14:41:35;3.72;;;1.40;;
18265;SDS011;9259;48.194;16.322;2022-09-09T14:44:03;2.83;;;1.30;;
18265;SDS011;9259;48.194;16.322;2022-09-09T14:46:31;2.95;;;1.55;;
18265;SDS011;9259;48.194;16.322;2022-09-09T14:48:59;2.10;;;1.30;;
18265;SDS011;9259;48.194;16.322;2022-09-09T14:51:27;6.22;;;1.50;;
18265;SDS011;9259;48.194;16.322;2022-09-09T14:53:57;1.65;;;1.00;;
18265;SDS011;9259;48.194;16.322;2022-09-09T14:56:28;4.88;;;1.55;;
18265;SDS011;9259;48.194;16.322;2022-09-09T14:58:58;3.95;;;1.60;;
18265;SDS011;9259;48.194;16.322;2022-09-09T15:01:28;3.25;;;1.48;;
18265;SDS011;9259;48.194;16.322;2022-09-09T15:03:57;3.78;;;1.50;;
18265;SDS011;9259;48.194;16.322;2022-09-09T15:06:27;4.22;;;1.42;;
18265;SDS011;9259;48.194;16.322;2022-09-09T15:08:58;3.38;;;1.70;;
18265;SDS011;9259;48.194;16.322;2022-09-09T15:11:27;2.17;;;1.33;;
18265;SDS011;9259;48.194;16.322;2022-09-09T15:13:57;6.65;;;1.83;;
18265;SDS011;9259;48.194;16.322;2022-09-09T15:16:26;3.60;;;1.77;;
18265;SDS011;9259;48.194;16.322;2022-09-09T15:18:55;5.53;;;1.83;;
18265;SDS011;9259;48.194;16.322;2022-09-09T15:21:24;5.60;;;1.77;;
18265;SDS011;9259;48.194;16.322;2022-09-09T15:23:54;4.32;;;1.50;;
18265;SDS011;9259;48.194;16.322;2022-09-09T15:26:24;4.40;;;1.75;;